Latest Weather Observations for Kuitpo

IDS60901

Issued at 9:01 pm CST Sunday 3 July 2022 (issued every 10 minutes, with the page automatically refreshed every 10 minutes)

About weather observations | Map of Adelaide area stations | Latest observations for Adelaide area | Other Formats
Station Details ID: 023887 Name: KUITPO FOREST RESERVE Lat: -35.17 Lon: 138.68 Height: 365.0 m
Data from the previous 72 hours. | See also: Recent months at Kuitpo
Date/Time
CST
Temp
°C
App
Temp
°C
Dew
Point
°C
Rel
Hum
%
Delta-T
°C
Wind Press
QNH
hPa
Press
MSL
hPa
Rain since
9am
mm
Dir  Spd
km/h
Gust
km/h
Spd
kts
Gust
kts
03/09:00pm 7.6 3.1 4.0 78 1.6 SE 17 26 9 14 1026.3 1026.7 0.2
03/08:30pm 7.8 2.8 3.8 76 1.7 ESE 19 30 10 16 1026.4 1026.8 0.2
03/08:00pm 7.7 3.5 3.9 77 1.7 SE 15 20 8 11 1026.6 1027.0 0.2
03/07:30pm 7.8 2.8 3.8 76 1.7 ESE 19 28 10 15 1026.4 1026.8 0.2
03/07:00pm 7.7 3.1 3.7 76 1.8 ESE 17 28 9 15 1026.4 1026.8 0.2
03/06:30pm 7.7 3.6 4.3 79 1.5 SE 15 26 8 14 1026.4 1026.8 0.2
03/06:00pm 7.9 3.8 4.5 79 1.5 SE 15 28 8 15 1026.3 1026.7 0.2
03/05:30pm 8.0 4.3 4.6 79 1.5 SE 13 20 7 11 1026.1 1026.5 0.2
03/05:00pm 8.1 4.0 4.3 77 1.7 SSE 15 26 8 14 1025.9 1026.3 0.2
03/04:30pm 8.2 4.1 4.2 76 1.8 SSE 15 32 8 17 1026.0 1026.4 0.2
03/04:00pm 8.5 5.2 4.7 77 1.7 SE 11 20 6 11 1025.9 1026.3 0.2
03/03:30pm 8.6 4.1 4.2 74 2.0 SSE 17 26 9 14 1025.7 1026.0 0.2
03/03:00pm 9.2 4.8 4.6 73 2.1 SSE 17 32 9 17 1025.7 1026.0 0.2
03/02:30pm 8.7 3.8 4.1 73 2.0 SE 19 30 10 16 1025.7 1026.0 0.2
03/02:00pm 9.2 4.2 3.8 69 2.4 SE 19 33 10 18 1025.8 1026.2 0.2
03/01:30pm 9.0 4.8 4.0 71 2.2 SE 15 26 8 14 1026.0 1026.4 0.2
03/01:00pm 8.4 3.9 4.0 74 2.0 SE 17 32 9 17 1026.5 1026.9 0.2
03/12:30pm 8.4 3.5 4.2 75 1.9 SE 19 35 10 19 1026.9 1027.3 0.2
03/12:00pm 8.1 3.2 4.3 77 1.7 SE 19 32 10 17 1027.5 1027.9 0.2
03/11:30am 7.7 2.8 4.3 79 1.5 ESE 19 30 10 16 1027.9 1028.2 0.2
03/11:00am 7.2 2.5 5.0 86 1.0 ESE 19 28 10 15 1028.3 1028.7 0.0
03/10:30am 6.8 2.8 5.1 89 0.8 E 15 26 8 14 1028.4 1028.8 0.0
03/10:00am 6.0 1.6 4.6 91 0.6 ESE 17 33 9 18 1028.5 1028.9 0.0
03/09:30am 5.9 1.1 4.7 92 0.5 E 19 28 10 15 1028.3 1028.7 0.0
03/09:00am 5.9 1.5 4.5 91 0.6 ESE 17 32 9 17 1028.2 1028.6 1.0
03/08:30am 5.8 2.2 5.1 95 0.3 ESE 13 20 7 11 1028.0 1028.3 1.0
03/08:00am 5.6 1.6 5.0 96 0.3 ESE 15 22 8 12 1028.0 1028.3 1.0
03/07:30am 5.4 1.5 5.4 100 0.0 E 15 22 8 12 1027.6 1028.0 1.0
03/07:00am 5.2 0.9 5.2 100 0.0 E 17 28 9 15 1027.3 1027.7 1.0
03/06:30am 5.3 1.0 5.3 100 0.0 ESE 17 24 9 13 1027.4 1027.8 1.0
03/06:00am 5.6 2.1 5.6 100 0.0 ESE 13 20 7 11 1027.2 1027.6 1.0
03/05:30am 5.8 2.0 5.8 100 0.0 ESE 15 20 8 11 1027.1 1027.5 1.0
03/05:00am 5.8 2.0 5.8 100 0.0 ESE 15 26 8 14 1026.8 1027.2 0.8
03/04:30am 5.9 2.1 5.9 100 0.0 ESE 15 20 8 11 1026.8 1027.2 0.8
03/04:00am 5.9 2.5 5.9 100 0.0 ESE 13 20 7 11 1026.8 1027.2 0.8
03/03:30am 6.0 2.6 6.0 100 0.0 ESE 13 17 7 9 1027.0 1027.4 0.8
03/03:00am 6.1 2.4 6.1 100 0.0 ESE 15 26 8 14 1027.2 1027.6 0.8
03/02:30am 6.3 3.4 6.3 100 0.0 ESE 11 17 6 9 1027.6 1028.0 0.6
03/02:00am 6.4 3.5 6.4 100 0.0 ESE 11 24 6 13 1027.8 1028.1 0.4
03/01:30am 6.4 3.1 6.4 100 0.0 ESE 13 20 7 11 1027.8 1028.1 0.2
03/01:00am 6.5 3.2 6.5 100 0.0 ESE 13 20 7 11 1027.9 1028.2 0.2
03/12:30am 6.5 3.2 6.5 100 0.0 ESE 13 19 7 10 1027.9 1028.2 0.0
03/12:00am 6.4 2.7 6.4 100 0.0 ESE 15 24 8 13 1027.8 1028.1 0.0
 
Date/Time
CST
Temp
°C
App
Temp
°C
Dew
Point
°C
Rel
Hum
%
Delta-T
°C
Wind Press
QNH
hPa
Press
MSL
hPa
Rain since
9am
mm
Dir  Spd
km/h
Gust
km/h
Spd
kts
Gust
kts
02/11:30pm 6.4 2.3 6.4 100 0.0 ESE 17 35 9 19 1028.1 1028.5 0.0
02/11:00pm 6.2 3.2 6.2 100 0.0 ESE 11 19 6 10 1028.2 1028.6 0.0
02/10:30pm 5.9 3.3 5.9 100 0.0 SE 9 13 5 7 1028.4 1028.8 0.0
02/10:00pm 5.6 2.9 5.6 100 0.0 SE 9 15 5 8 1028.6 1029.0 0.0
02/09:30pm 5.7 3.4 5.6 99 0.0 SE 7 11 4 6 1028.7 1029.1 0.0
02/09:00pm 6.0 2.5 5.6 97 0.2 SE 13 19 7 10 1028.7 1029.1 0.0
02/08:30pm 5.8 2.4 5.8 100 0.0 SE 13 22 7 12 1028.7 1029.1 0.0
02/08:00pm 5.5 1.6 5.5 100 0.0 SE 15 26 8 14 1028.6 1029.0 0.0
02/07:30pm 5.1 2.3 5.0 99 0.0 SE 9 13 5 7 1028.7 1029.1 0.0
02/07:00pm 5.5 3.1 5.2 98 0.1 SE 7 9 4 5 1028.6 1029.0 0.0
02/06:30pm 6.1 3.8 5.5 96 0.3 SSE 7 9 4 5 1028.7 1029.1 0.0
02/06:00pm 6.5 4.1 5.3 92 0.5 SE 7 11 4 6 1028.6 1029.0 0.0
02/05:30pm 7.4 4.7 5.7 89 0.8 SE 9 15 5 8 1028.6 1029.0 0.0
02/05:00pm 7.7 5.4 5.7 87 0.9 ESE 7 11 4 6 1028.6 1029.0 0.0
02/04:30pm 8.1 5.4 5.6 84 1.1 SE 9 11 5 6 1028.6 1029.0 0.0
02/04:00pm 8.3 6.1 5.2 81 1.4 SE 6 13 3 7 1028.7 1029.1 0.0
02/03:30pm 8.5 5.6 4.5 76 1.8 SE 9 13 5 7 1028.7 1029.1 0.0
02/03:00pm 8.3 4.6 4.7 78 1.6 ESE 13 19 7 10 1028.7 1029.1 0.0
02/02:30pm 8.5 5.2 4.7 77 1.7 ESE 11 17 6 9 1028.7 1029.1 0.0
02/02:00pm 8.8 5.6 5.2 78 1.7 SE 11 19 6 10 1028.7 1029.1 0.0
02/01:30pm 8.5 4.8 4.5 76 1.8 SE 13 22 7 12 1028.8 1029.2 0.0
02/01:00pm 8.8 5.5 4.8 76 1.8 ESE 11 15 6 8 1029.1 1029.5 0.0
02/12:30pm 8.8 5.6 5.0 77 1.7 SE 11 19 6 10 1029.6 1030.0 0.0
02/12:00pm 8.2 4.5 4.4 77 1.7 ESE 13 19 7 10 1030.0 1030.4 0.0
02/11:30am 8.6 4.9 4.6 76 1.8 ESE 13 20 7 11 1030.3 1030.8 0.0
02/11:00am 8.5 4.5 4.9 78 1.6 ESE 15 20 8 11 1030.4 1030.9 0.0
02/10:30am 7.9 4.2 4.7 80 1.4 ESE 13 20 7 11 1030.7 1031.1 0.0
02/10:00am 7.7 3.6 4.3 79 1.5 ESE 15 22 8 12 1030.4 1030.9 0.0
02/09:30am 7.3 3.6 4.6 83 1.2 ESE 13 20 7 11 1030.3 1030.8 0.0
02/09:00am 6.5 2.8 4.5 87 0.9 E 13 17 7 9 1030.2 1030.6 0.0
02/08:30am 5.5 1.8 4.5 93 0.4 E 13 17 7 9 1030.2 1030.6 0.0
02/08:00am 5.0 0.5 4.4 96 0.3 ESE 17 26 9 14 1030.3 1030.8 0.0
02/07:30am 4.7 0.6 4.1 96 0.3 ESE 15 20 8 11 1030.2 1030.6 0.0
02/07:00am 4.8 0.7 4.1 95 0.3 ESE 15 20 8 11 1030.0 1030.4 0.0
02/06:30am 4.8 1.4 3.9 94 0.4 ESE 11 15 6 8 1029.9 1030.3 0.0
02/06:00am 5.0 1.2 4.0 93 0.4 ESE 13 19 7 10 1029.7 1030.1 0.0
02/05:30am 5.1 1.0 4.2 94 0.4 E 15 20 8 11 1029.6 1030.0 0.0
02/05:00am 5.2 0.8 4.5 95 0.3 ESE 17 22 9 12 1029.7 1030.1 0.0
02/04:30am 5.1 1.4 4.5 96 0.3 ESE 13 15 7 8 1029.8 1030.2 0.0
02/04:00am 5.6 2.7 4.6 93 0.4 ESE 9 11 5 6 1030.0 1030.4 0.0
02/03:30am 6.2 2.9 4.4 88 0.8 E 11 15 6 8 1030.2 1030.6 0.0
02/03:00am 6.3 4.2 3.8 84 1.1 E 4 9 2 5 1030.3 1030.8 0.0
02/02:30am 6.6 4.9 3.8 82 1.2 E 2 7 1 4 1030.4 1030.9 0.0
02/02:00am 6.7 3.6 3.5 80 1.4 ENE 9 11 5 6 1030.5 1031.0 0.0
02/01:30am 6.9 3.8 3.5 79 1.5 ENE 9 13 5 7 1030.3 1030.8 0.0
02/01:00am 6.9 4.2 3.5 79 1.5 E 7 13 4 7 1030.5 1031.0 0.0
02/12:30am 7.0 3.9 3.8 80 1.4 E 9 15 5 8 1030.5 1031.0 0.0
02/12:00am 7.0 3.9 3.8 80 1.4 E 9 13 5 7 1030.7 1031.1 0.0
 
Date/Time
CST
Temp
°C
App
Temp
°C
Dew
Point
°C
Rel
Hum
%
Delta-T
°C
Wind Press
QNH
hPa
Press
MSL
hPa
Rain since
9am
mm
Dir  Spd
km/h
Gust
km/h
Spd
kts
Gust
kts
01/11:30pm 7.1 4.4 3.7 79 1.5 ESE 7 11 4 6 1030.9 1031.3 0.0
01/11:00pm 7.3 4.3 3.9 79 1.5 SE 9 15 5 8 1031.0 1031.4 0.0
01/10:30pm 7.3 4.3 3.9 79 1.5 SE 9 15 5 8 1030.9 1031.3 0.0
01/10:00pm 7.5 4.0 3.7 77 1.7 SE 11 20 6 11 1030.9 1031.3 0.0
01/09:30pm 7.4 4.3 3.8 78 1.6 SE 9 19 5 10 1031.0 1031.4 0.0
01/09:00pm 7.4 4.3 3.6 77 1.6 SSE 9 19 5 10 1031.1 1031.5 0.0
01/08:30pm 7.5 4.1 4.1 79 1.5 ESE 11 19 6 10 1031.0 1031.4 0.0
01/08:00pm 7.6 4.6 4.2 79 1.5 ESE 9 19 5 10 1030.5 1031.0 0.0
01/07:30pm 7.6 4.6 4.2 79 1.5 SE 9 15 5 8 1030.5 1031.0 0.0
01/07:00pm 7.7 4.3 4.1 78 1.6 ESE 11 19 6 10 1030.4 1030.9 0.0
01/06:30pm 7.6 4.6 4.2 79 1.5 ESE 9 13 5 7 1030.3 1030.8 0.0
01/06:00pm 7.8 4.5 4.4 79 1.5 SE 11 17 6 9 1030.2 1030.6 0.0
01/05:30pm 7.9 4.6 4.7 80 1.4 SE 11 20 6 11 1029.8 1030.2 0.0
01/05:00pm 8.1 5.8 5.6 84 1.1 SSE 7 13 4 7 1029.7 1030.1 0.0
01/04:30pm 8.3 5.9 5.4 82 1.3 SSE 7 15 4 8 1029.7 1030.1 0.0
01/04:00pm 8.6 5.8 5.0 78 1.6 S 9 15 5 8 1029.7 1030.1 0.0
01/03:30pm 8.9 5.6 4.5 74 2.0 SSE 11 20 6 11 1029.6 1030.0 0.0
01/03:00pm 9.0 6.1 4.8 75 1.9 S 9 19 5 10 1029.7 1030.1 0.0
01/02:30pm 9.1 6.3 5.1 76 1.8 SSE 9 19 5 10 1029.7 1030.1 0.0
01/02:00pm 9.1 6.9 5.5 78 1.7 ESE 6 11 3 6 1029.9 1030.3 0.0
01/01:30pm 8.8 5.7 5.7 81 1.4 ESE 11 17 6 9 1030.1 1030.5 0.0
01/01:00pm 9.3 6.1 5.1 75 1.9 SE 11 17 6 9 1030.5 1031.0 0.0
01/12:30pm 9.4 6.7 5.8 78 1.7 SSE 9 19 5 10 1030.8 1031.2 0.0
01/12:00pm 9.3 6.6 5.7 78 1.7 SSE 9 15 5 8 1031.0 1031.4 0.0
01/11:30am 9.4 6.8 5.9 79 1.6 ESE 9 17 5 9 1031.3 1031.7 0.0
01/11:00am 9.3 6.2 5.7 78 1.7 ESE 11 17 6 9 1031.4 1031.8 0.0
01/10:30am 9.3 7.0 5.7 78 1.7 ESE 7 13 4 7 1031.4 1031.8 0.0
01/10:00am 9.0 6.7 5.7 80 1.5 ESE 7 11 4 6 1031.5 1031.9 0.0
01/09:30am 8.8 6.1 5.7 81 1.4 SE 9 13 5 7 1031.2 1031.6 0.0
01/09:00am 8.5 5.1 6.1 85 1.1 ESE 13 17 7 9 1031.1 1031.4 0.4
01/08:30am 7.9 5.5 7.0 94 0.4 SE 9 13 5 7 1030.7 1031.0 0.4
01/08:00am 7.5 5.8 7.5 100 0.0 SE 6 11 3 6 1030.7 1031.0 0.4
01/07:30am 7.6 5.8 7.2 97 0.2 ESE 6 9 3 5 1030.3 1030.6 0.4
01/07:00am 7.7 5.7 7.0 95 0.3 E 7 13 4 7 1030.1 1030.4 0.4
01/06:30am 7.8 5.4 7.1 95 0.3 ESE 9 15 5 8 1029.7 1030.0 0.4
01/06:00am 7.8 5.5 7.4 97 0.2 ESE 9 15 5 8 1029.6 1029.9 0.4
01/05:30am 7.8 5.8 7.2 96 0.3 ESE 7 13 4 7 1029.4 1029.7 0.4
01/05:00am 7.9 4.8 7.3 96 0.3 E 13 17 7 9 1029.2 1029.5 0.4
01/04:30am 7.9 4.4 7.1 95 0.4 E 15 24 8 13 1028.9 1029.2 0.4
01/04:00am 8.0 4.1 7.2 95 0.4 ESE 17 26 9 14 1028.9 1029.2 0.4
01/03:30am 8.2 4.3 7.3 94 0.4 ESE 17 26 9 14 1028.8 1029.1 0.4
01/03:00am 8.3 3.9 7.4 94 0.4 ESE 20 30 11 16 1028.9 1029.2 0.4
01/02:30am 8.5 3.8 7.9 96 0.3 ESE 22 35 12 19 1028.9 1029.2 0.4
01/02:00am 8.6 4.7 8.5 99 0.0 ESE 19 30 10 16 1028.7 1029.0 0.4
01/01:30am 8.7 4.2 8.7 100 0.0 ESE 22 39 12 21 1028.3 1028.6 0.4
01/01:00am 8.8 4.4 8.8 100 0.0 ESE 22 39 12 21 1028.2 1028.5 0.4
01/12:30am 8.8 4.7 8.8 100 0.0 SE 20 37 11 20 1028.2 1028.5 0.4
01/12:00am 8.8 4.4 8.8 100 0.0 SE 22 35 12 19 1028.2 1028.5 0.4
 
Date/Time
CST
Temp
°C
App
Temp
°C
Dew
Point
°C
Rel
Hum
%
Delta-T
°C
Wind Press
QNH
hPa
Press
MSL
hPa
Rain since
9am
mm
Dir  Spd
km/h
Gust
km/h
Spd
kts
Gust
kts
30/11:30pm 9.1 5.1 9.1 100 0.0 SE 20 33 11 18 1028.3 1028.6 0.4
30/11:00pm 9.0 5.0 9.0 100 0.0 SE 20 35 11 19 1028.2 1028.5 0.2
30/10:30pm 9.1 5.3 9.1 100 0.0 SE 19 30 10 16 1028.2 1028.5 0.2
30/10:00pm 9.0 5.9 9.0 100 0.0 SE 15 24 8 13 1028.0 1028.2 0.2
30/09:30pm 9.0 6.2 8.6 97 0.2 SE 13 24 7 13 1028.0 1028.2 0.0

Latest Capital City Observations: Canberra | Sydney | Melbourne | Brisbane | Adelaide | Perth | Hobart | Darwin

Other formats

Comma delimited format used in spreadsheet applications
http://www.bom.gov.au/fwo/IDS60901/IDS60901.94683.axf

JavaScript Object Notation format (JSON) in row-major order
http://www.bom.gov.au/fwo/IDS60901/IDS60901.94683.json

Data quality

Most of these data are generated automatically and are frequently updated. Quality checks on data are not normally performed. It is possible for incorrect values to appear. Refer to information at About Latest Weather Observations and please check the disclaimer before using these data.